Terminal Aerodrome Forecast
Issued by NWS Portland, OR

Home | Current Version | Previous Version | Text Only | Print | Product List | Glossary On
Versions: 1 2 3 4 5 6 7 8 9 10 11 12 13 14 15 16
000
FTUS46 KPQR 241127
TAFSLE
TAF
KSLE 241127Z 2412/2512 15004KT P6SM SCT050 OVC080
     FM241800 01006KT 6SM -RA OVC050
     FM250300 VRB03KT P6SM SCT050 BKN100=

USA.gov is the U.S. government's official web portal to all federal, state and local government web resources and services.